createdAt,value
2022-12-12T00:03:41.570Z,12.18
2022-12-12T00:13:43.853Z,8.00
2022-12-12T00:23:46.459Z,8.25
2022-12-12T00:33:48.786Z,6.20
2022-12-12T00:43:51.367Z,8.73
2022-12-12T00:53:53.462Z,9.07
2022-12-12T01:03:55.504Z,5.53
2022-12-12T01:13:57.366Z,9.98
2022-12-12T01:23:59.206Z,11.13
2022-12-12T01:34:00.957Z,6.15
2022-12-12T01:44:07.197Z,6.97
2022-12-12T01:54:13.885Z,3.95
2022-12-12T02:04:17.038Z,6.80
2022-12-12T02:14:41.477Z,10.98
2022-12-12T02:24:49.245Z,8.88
2022-12-12T02:35:11.779Z,8.40
2022-12-12T02:45:41.179Z,8.27
2022-12-12T02:55:43.078Z,11.17
2022-12-12T03:05:55.682Z,5.38
2022-12-12T03:16:09.592Z,9.18
2022-12-12T03:26:31.723Z,11.18
2022-12-12T03:36:42.055Z,10.70
2022-12-12T03:46:57.153Z,8.88
2022-12-12T03:57:13.601Z,8.82
2022-12-12T04:07:25.380Z,5.65
2022-12-12T04:17:46.659Z,9.40
2022-12-12T04:27:52.256Z,11.60
2022-12-12T04:38:00.515Z,6.80
2022-12-12T04:48:05.942Z,7.88
2022-12-12T04:58:08.870Z,5.40
2022-12-12T05:08:25.859Z,11.02
2022-12-12T05:18:27.825Z,11.50
2022-12-12T05:28:30.147Z,8.48
2022-12-12T05:38:32.539Z,13.52
2022-12-12T05:48:34.644Z,12.27
2022-12-12T05:58:36.615Z,7.55
2022-12-12T06:08:38.493Z,7.55
2022-12-12T06:18:40.357Z,11.95
2022-12-12T06:28:42.709Z,8.00
2022-12-12T06:38:44.619Z,12.27
2022-12-12T06:48:46.769Z,12.90
2022-12-12T06:58:49.289Z,8.23
2022-12-12T07:08:52.007Z,12.23
2022-12-12T07:18:53.876Z,11.52
2022-12-12T07:28:55.690Z,13.13
2022-12-12T07:38:57.461Z,11.10
2022-12-12T07:48:59.249Z,9.80
2022-12-12T07:59:01.177Z,17.80
2022-12-12T08:09:03.348Z,14.30
2022-12-12T08:19:05.261Z,15.65
2022-12-12T08:29:07.087Z,10.77
2022-12-12T08:39:11.035Z,14.18
2022-12-12T08:49:12.861Z,14.60
2022-12-12T08:59:14.759Z,18.35
2022-12-12T09:09:16.628Z,13.70
2022-12-12T09:19:18.541Z,15.18
2022-12-12T09:29:20.710Z,21.75
2022-12-12T09:39:22.521Z,19.50
2022-12-12T09:49:43.254Z,12.73
2022-12-12T10:00:08.262Z,13.07
2022-12-12T10:10:22.909Z,16.00
2022-12-12T10:20:30.778Z,10.75
2022-12-12T10:30:35.639Z,17.35
2022-12-12T10:40:58.018Z,10.80
2022-12-12T10:51:04.336Z,14.85
2022-12-12T11:01:17.711Z,24.83
2022-12-12T11:11:37.852Z,35.90
2022-12-12T11:21:39.803Z,33.85
2022-12-12T11:31:44.150Z,15.25
2022-12-12T11:42:16.912Z,17.92
2022-12-12T11:52:31.076Z,36.05
2022-12-12T12:02:51.908Z,42.97
2022-12-12T12:13:14.085Z,24.38
2022-12-12T12:23:35.140Z,29.08
2022-12-12T12:34:13.215Z,26.80
2022-12-12T12:44:37.060Z,25.65
2022-12-12T12:54:46.759Z,24.33
2022-12-12T13:05:38.384Z,19.52
2022-12-12T13:15:59.865Z,12.00
2022-12-12T13:26:21.994Z,16.13
2022-12-12T13:36:29.913Z,12.38
2022-12-12T13:46:37.521Z,15.82
2022-12-12T13:56:44.740Z,15.68
2022-12-12T14:06:57.763Z,19.48
2022-12-12T14:16:59.981Z,16.40
2022-12-12T14:27:08.163Z,19.83
2022-12-12T14:37:10.000Z,20.27
2022-12-12T14:47:16.511Z,19.33
2022-12-12T14:57:24.834Z,19.65
2022-12-12T15:07:32.665Z,14.32
2022-12-12T15:17:45.515Z,14.07
2022-12-12T15:27:55.566Z,16.30
2022-12-12T15:38:04.494Z,13.02
2022-12-12T15:48:07.429Z,12.63
2022-12-12T15:58:28.877Z,16.25
2022-12-12T16:08:32.273Z,14.85
2022-12-12T16:18:34.962Z,17.50
2022-12-12T16:28:37.980Z,17.75
2022-12-12T16:38:40.825Z,18.17
2022-12-12T16:48:42.638Z,14.88
2022-12-12T16:58:44.516Z,16.70
2022-12-12T17:08:46.449Z,10.95
2022-12-12T17:18:48.246Z,16.27
2022-12-12T17:28:50.133Z,9.52
2022-12-12T17:38:52.006Z,4.95
2022-12-12T17:48:53.912Z,10.27
2022-12-12T17:58:55.982Z,12.65
2022-12-12T18:08:58.008Z,17.23
2022-12-12T18:19:00.299Z,12.55
2022-12-12T18:29:05.811Z,12.73
2022-12-12T18:39:08.540Z,13.52
2022-12-12T18:49:15.043Z,16.08
2022-12-12T18:59:17.066Z,15.93
2022-12-12T19:09:19.649Z,10.32
2022-12-12T19:19:21.589Z,10.45
2022-12-12T19:29:23.542Z,10.95
2022-12-12T19:39:25.400Z,8.77
2022-12-12T19:49:27.238Z,9.65
2022-12-12T19:59:29.400Z,9.07
2022-12-12T20:09:34.215Z,10.45
2022-12-12T20:19:36.229Z,6.78
2022-12-12T20:29:38.038Z,18.20
2022-12-12T20:39:39.946Z,27.60
2022-12-12T20:49:41.768Z,12.25
2022-12-12T20:59:43.535Z,8.02
2022-12-12T21:09:45.308Z,8.27
2022-12-12T21:19:47.123Z,8.10
2022-12-12T21:29:49.012Z,11.75
2022-12-12T21:39:50.910Z,7.65
2022-12-12T21:49:52.758Z,11.13
2022-12-12T21:59:54.580Z,9.90
2022-12-12T22:09:56.950Z,5.60
2022-12-12T22:20:00.551Z,9.73
2022-12-12T22:30:02.422Z,5.45
2022-12-12T22:40:04.712Z,8.90
2022-12-12T22:50:06.967Z,7.78
2022-12-12T23:00:09.276Z,7.40
2022-12-12T23:10:11.236Z,6.07
2022-12-12T23:20:12.988Z,5.88
2022-12-12T23:30:14.775Z,6.22
2022-12-12T23:40:16.720Z,8.50
2022-12-12T23:50:18.473Z,6.00
